Sistema su
RaspberryPi



Stato stazione regolare


Masiera  Masiera


Masiera Torre  Masiera Torre


Lugo


Cotignola


Faenza

Lavezzola


Raticosa
Muraglione
Fumaiolo

Meteosat

Fulminazioni





Offrimi una birra..

Nessuna attenzione particolare richiesta.    Non ci sono allerte meteo

Weather Underground Storia pagina Testo

Quotidiano Riepilogo per Ottobre 19, 2017 Unità:  Metrico    Inglese   Entrambi
« Indietro Day
Avanti Day »
Quotidiano Settimanale mensile Annuale Personalizzato
  Attuale: Max: Min: Media:
Temperatura: 14.0 °C 14.0 °C 10.8 °C 12.6 °C
P.to Rugiada: 13.1 °C 13.1 °C 9.2 °C 11.6 °C
Umidità: 94 % 95 % 90 % 93 %
Vel. Vento: 0.0 km/h 4.8 km/h 0.0 km/h 1.8 km/h
Raffiche: 0.0 km/h 6.4 km/h - -
Vento:Calm - - West
Pressione: 1019.2 hPa 1019.2 hPa 1017.8 hPa -
Precipitazioni: 0.0 mm      
Historical Graphs
 
 
Dati di tabella per il Ottobre 19, 2017
Tempo Temperatura P.to Rugiada Pressione Vento Vel. Vento Raffiche Umidità Tasso delle precipitazioni (oraria)
00:00 10.8 °C 9.2 °C 1018.2 hPa Calm     90 % 0.0 mm
00:05 10.8 °C 9.2 °C 1018.2 hPa Calm     90 % 0.0 mm
00:10 10.8 °C 9.2 °C 1018.2 hPa Calm     90 % 0.0 mm
00:20 10.8 °C 9.2 °C 1018.2 hPa Calm     90 % 0.0 mm
00:25 11.2 °C 9.9 °C 1018.2 hPa NW 3.2 km/h 4.8 km/h 92 % 0.0 mm
00:30 11.2 °C 9.9 °C 1018.2 hPa NNW 4.8 km/h   92 % 0.0 mm
00:35 10.9 °C 9.4 °C 1018.2 hPa SSE 1.6 km/h 6.4 km/h 91 % 0.0 mm
00:40 11.1 °C 9.8 °C 1018.2 hPa Calm     92 % 0.0 mm
00:50 11.0 °C 9.7 °C 1018.2 hPa NNW 4.8 km/h   92 % 0.0 mm
00:55 11.0 °C 9.7 °C 1018.2 hPa NNW 4.8 km/h   92 % 0.0 mm
01:10 11.3 °C 10.1 °C 1018.2 hPa NW 3.2 km/h   92 % 0.0 mm
01:15 10.8 °C 9.2 °C 1018.2 hPa Calm     90 % 0.0 mm
01:20 11.2 °C 9.8 °C 1018.2 hPa SSE 1.6 km/h 3.2 km/h 91 % 0.0 mm
01:25 11.3 °C 10.1 °C 1018.2 hPa NW 3.2 km/h   92 % 0.0 mm
01:30 11.3 °C 10.1 °C 1018.2 hPa NW 3.2 km/h   92 % 0.0 mm
01:40 11.7 °C 10.4 °C 1018.2 hPa NNE 3.2 km/h   92 % 0.0 mm
01:45 11.3 °C 10.1 °C 1018.2 hPa NW 3.2 km/h   92 % 0.0 mm
01:50 11.5 °C 10.2 °C 1018.2 hPa NW 3.2 km/h   92 % 0.0 mm
01:55 11.5 °C 10.2 °C 1018.2 hPa NW 3.2 km/h   92 % 0.0 mm
02:00 11.5 °C 10.2 °C 1018.2 hPa NW 3.2 km/h   92 % 0.0 mm
02:05 12.1 °C 11.0 °C 1018.2 hPa NNW 3.2 km/h 3.2 km/h 93 % 0.0 mm
02:10 11.8 °C 10.5 °C 1018.2 hPa NW 3.2 km/h 3.2 km/h 92 % 0.0 mm
02:20 11.3 °C 10.1 °C 1018.2 hPa NW 3.2 km/h   92 % 0.0 mm
02:25 12.6 °C 11.5 °C 1018.5 hPa NW 1.6 km/h 3.2 km/h 93 % 0.0 mm
02:30 12.7 °C 11.6 °C 1018.5 hPa NW 1.6 km/h   93 % 0.0 mm
02:40 11.3 °C 10.1 °C 1018.2 hPa NW 3.2 km/h   92 % 0.0 mm
02:45 12.8 °C 11.7 °C 1018.5 hPa NW 1.6 km/h 1.6 km/h 93 % 0.0 mm
02:50 11.3 °C 10.1 °C 1018.2 hPa NW 3.2 km/h   92 % 0.0 mm
02:55 11.3 °C 10.1 °C 1018.2 hPa NW 3.2 km/h   92 % 0.0 mm
03:00 11.3 °C 10.1 °C 1018.2 hPa NW 3.2 km/h   92 % 0.0 mm
03:05 11.3 °C 10.1 °C 1018.2 hPa NW 3.2 km/h   92 % 0.0 mm
03:10 12.7 °C 11.6 °C 1018.5 hPa NW 1.6 km/h   93 % 0.0 mm
03:20 13.1 °C 12.0 °C 1018.5 hPa WNW 1.6 km/h   93 % 0.0 mm
03:25 13.2 °C 12.1 °C 1018.5 hPa NNW 1.6 km/h 3.2 km/h 93 % 0.0 mm
03:30 13.2 °C 12.1 °C 1018.5 hPa North 1.6 km/h   93 % 0.0 mm
03:40 13.1 °C 12.0 °C 1018.5 hPa WNW 1.6 km/h   93 % 0.0 mm
03:45 12.6 °C 11.5 °C 1018.5 hPa West 1.6 km/h   93 % 0.0 mm
03:50 13.1 °C 12.0 °C 1018.5 hPa WNW 1.6 km/h   93 % 0.0 mm
03:55 12.7 °C 11.6 °C 1018.5 hPa West 1.6 km/h   93 % 0.0 mm
04:00 13.2 °C 12.3 °C 1018.2 hPa Calm     94 % 0.0 mm
04:05 13.5 °C 12.6 °C 1018.2 hPa Calm     94 % 0.0 mm
04:10 12.7 °C 11.6 °C 1018.5 hPa NW 1.6 km/h   93 % 0.0 mm
04:20 12.7 °C 11.6 °C 1018.5 hPa NW 1.6 km/h   93 % 0.0 mm
04:25 13.2 °C 12.1 °C 1018.5 hPa North 1.6 km/h   93 % 0.0 mm
04:30 13.2 °C 12.1 °C 1018.5 hPa North 1.6 km/h   93 % 0.0 mm
04:40 13.5 °C 12.6 °C 1018.2 hPa Calm     94 % 0.0 mm
04:50 13.5 °C 12.6 °C 1018.2 hPa Calm     94 % 0.0 mm
04:55 13.5 °C 12.6 °C 1018.2 hPa Calm     94 % 0.0 mm
05:00 13.5 °C 12.6 °C 1018.2 hPa Calm     94 % 0.0 mm
05:05 13.4 °C 12.4 °C 1017.8 hPa West 3.2 km/h   94 % 0.0 mm
05:10 13.4 °C 12.4 °C 1017.8 hPa West 3.2 km/h   94 % 0.0 mm
05:20 13.4 °C 12.4 °C 1017.8 hPa West 3.2 km/h   94 % 0.0 mm
05:25 13.5 °C 12.6 °C 1018.2 hPa Calm     94 % 0.0 mm
05:30 13.4 °C 12.4 °C 1017.8 hPa West 3.2 km/h   94 % 0.0 mm
05:35 13.5 °C 12.6 °C 1018.2 hPa Calm     94 % 0.0 mm
05:40 13.2 °C 12.1 °C 1018.5 hPa North 1.6 km/h   93 % 0.0 mm
05:45 13.5 °C 12.6 °C 1018.2 hPa Calm     94 % 0.0 mm
05:50 13.2 °C 12.1 °C 1018.5 hPa North 1.6 km/h   93 % 0.0 mm
05:55 13.5 °C 12.6 °C 1018.2 hPa Calm     94 % 0.0 mm
06:00 13.4 °C 12.4 °C 1017.8 hPa West 3.2 km/h   94 % 0.0 mm
06:05 13.2 °C 12.1 °C 1018.5 hPa North 1.6 km/h   93 % 0.0 mm
06:15 13.4 °C 12.4 °C 1017.8 hPa West 3.2 km/h   94 % 0.0 mm
06:20 13.5 °C 12.6 °C 1018.2 hPa Calm     94 % 0.0 mm
06:25 13.4 °C 12.4 °C 1017.8 hPa West 3.2 km/h   94 % 0.0 mm
06:30 13.1 °C 11.9 °C 1018.5 hPa North 1.6 km/h   93 % 0.0 mm
06:40 13.4 °C 12.4 °C 1017.8 hPa West 3.2 km/h   94 % 0.0 mm
06:45 13.5 °C 12.6 °C 1018.2 hPa Calm     94 % 0.0 mm
06:50 13.4 °C 12.4 °C 1017.8 hPa West 3.2 km/h   94 % 0.0 mm
06:55 13.5 °C 12.6 °C 1018.2 hPa Calm     94 % 0.0 mm
07:05 12.9 °C 11.9 °C 1018.2 hPa West 1.6 km/h 1.6 km/h 94 % 0.0 mm
07:10 13.4 °C 12.4 °C 1017.8 hPa West 3.2 km/h   94 % 0.0 mm
07:15 13.4 °C 12.4 °C 1017.8 hPa West 3.2 km/h   94 % 0.0 mm
07:20 12.9 °C 11.9 °C 1018.2 hPa Calm     94 % 0.0 mm
07:25 12.9 °C 11.9 °C 1018.2 hPa Calm     94 % 0.0 mm
07:30 12.9 °C 11.9 °C 1018.2 hPa Calm   1.6 km/h 94 % 0.0 mm
07:35 12.8 °C 11.8 °C 1017.8 hPa NNW 3.2 km/h   94 % 0.0 mm
07:40 13.4 °C 12.4 °C 1017.8 hPa West 3.2 km/h   94 % 0.0 mm
07:45 12.8 °C 11.8 °C 1017.8 hPa NNW 3.2 km/h   94 % 0.0 mm
07:50 13.4 °C 12.4 °C 1017.8 hPa West 3.2 km/h   94 % 0.0 mm
07:55 12.5 °C 11.6 °C 1017.8 hPa Calm     94 % 0.0 mm
08:05 12.9 °C 11.9 °C 1018.2 hPa Calm     94 % 0.0 mm
08:10 12.8 °C 11.8 °C 1017.8 hPa NNW 3.2 km/h   94 % 0.0 mm
08:15 13.4 °C 12.4 °C 1017.8 hPa West 3.2 km/h   94 % 0.0 mm
08:25 12.6 °C 11.7 °C 1018.2 hPa NNW 1.6 km/h 1.6 km/h 94 % 0.0 mm
08:30 12.4 °C 11.4 °C 1018.5 hPa SSW 1.6 km/h   94 % 0.0 mm
08:35 12.5 °C 11.6 °C 1017.8 hPa Calm     94 % 0.0 mm
08:45 12.4 °C 11.4 °C 1018.5 hPa South 1.6 km/h   94 % 0.0 mm
08:50 13.4 °C 12.4 °C 1017.8 hPa West 3.2 km/h   94 % 0.0 mm
08:55 13.4 °C 12.4 °C 1017.8 hPa West 3.2 km/h   94 % 0.0 mm
09:00 12.4 °C 11.4 °C 1018.5 hPa Calm     94 % 0.0 mm
09:05 12.4 °C 11.5 °C 1018.5 hPa Calm     94 % 0.0 mm
09:10 12.4 °C 11.4 °C 1018.5 hPa South 1.6 km/h   94 % 0.0 mm
09:20 12.6 °C 11.7 °C 1018.8 hPa West 1.6 km/h   94 % 0.0 mm
09:25 12.8 °C 11.8 °C 1019.2 hPa West 1.6 km/h   94 % 0.0 mm
09:30 12.8 °C 11.8 °C 1019.2 hPa West 1.6 km/h   94 % 0.0 mm
09:35 12.6 °C 11.7 °C 1018.8 hPa West 1.6 km/h   94 % 0.0 mm
09:40 12.6 °C 11.7 °C 1018.8 hPa West 1.6 km/h   94 % 0.0 mm
09:45 12.7 °C 11.8 °C 1018.8 hPa West 1.6 km/h 3.2 km/h 94 % 0.0 mm
09:50 12.7 °C 11.8 °C 1018.8 hPa West 1.6 km/h   94 % 0.0 mm
09:55 13.1 °C 12.2 °C 1018.8 hPa WNW 1.6 km/h 3.2 km/h 94 % 0.0 mm
10:00 13.2 °C 12.3 °C 1018.8 hPa NW 1.6 km/h   94 % 0.0 mm
10:05 12.4 °C 11.4 °C 1018.5 hPa South 1.6 km/h   94 % 0.0 mm
10:10 12.7 °C 11.8 °C 1018.8 hPa West 1.6 km/h   94 % 0.0 mm
10:20 13.2 °C 12.3 °C 1018.8 hPa NW 1.6 km/h   94 % 0.0 mm
10:25 12.7 °C 11.8 °C 1018.8 hPa West 1.6 km/h   94 % 0.0 mm
10:30 12.4 °C 11.4 °C 1018.5 hPa South 1.6 km/h   94 % 0.0 mm
10:35 12.7 °C 11.8 °C 1018.8 hPa West 1.6 km/h   94 % 0.0 mm
10:40 13.5 °C 12.7 °C 1019.2 hPa West 1.6 km/h   95 % 0.0 mm
10:45 13.2 °C 12.3 °C 1018.8 hPa NW 1.6 km/h   94 % 0.0 mm
10:55 13.5 °C 12.7 °C 1019.2 hPa West 1.6 km/h   95 % 0.0 mm
11:00 13.5 °C 12.7 °C 1019.2 hPa West 1.6 km/h   95 % 0.0 mm
11:10 12.7 °C 11.8 °C 1018.8 hPa West 1.6 km/h   94 % 0.0 mm
11:15 13.9 °C 12.9 °C 1019.2 hPa NNW 1.6 km/h   94 % 0.0 mm
11:20 14.0 °C 13.1 °C 1019.2 hPa Calm     94 % 0.0 mm
meteomasiera
complimenti di Weather Underground - 3.25 mb

Script sviluppato da  Jim McMurry - jmcmurry@mwt.net Adattato per il modello da  Wim van der Kuil - Leuven-Template.eu



meteomasiera trasmette i dati della propria stazione in tempo reale su:



...e altri

free counters